Time;durP1;ratioP1;P1;durP2;ratioP2;P2;SDS_P1;SDS_P2;PMS_P1;PMS_P2;Temp;Humidity;BMP_temperature;BMP_pressure;BME280_temperature;BME280_humidity;BME280_pressure;Samples;Min_cycle;Max_cycle;Signal;HPM_P1;HPM_P2
2023/02/11 00:02:05;;;;;;;;;;;7.50;99.90;;;;;;5039104;28;19921;-66
2023/02/11 00:04:31;;;;;;;;;;;7.50;99.90;;;;;;5046659;28;19914;-65
2023/02/11 00:06:56;;;;;;;;;;;7.50;99.90;;;;;;5042576;28;19921;-65
2023/02/11 00:09:22;;;;;;;;;;;7.40;99.90;;;;;;5027752;28;19920;-65
2023/02/11 00:11:48;;;;;;;;;;;7.30;99.90;;;;;;5043964;28;20062;-66
2023/02/11 00:14:13;;;;;;;;;;;7.30;99.90;;;;;;5044618;28;19916;-64
2023/02/11 00:16:38;;;;;;;;;;;7.30;99.90;;;;;;5037407;28;19921;-65
2023/02/11 00:19:05;;;;;;;;;;;7.40;99.90;;;;;;5046006;28;19920;-66
2023/02/11 00:21:31;;;;;;;;;;;7.40;99.90;;;;;;5044149;28;20003;-65
2023/02/11 00:23:58;;;;;;;;;;;7.40;99.90;;;;;;5048191;28;20004;-66
2023/02/11 00:26:28;;;;;;;;;;;7.40;99.90;;;;;;5041801;28;20035;-65
2023/02/11 00:28:55;;;;;;;;;;;7.40;99.90;;;;;;5048779;28;20398;-66
2023/02/11 00:31:22;;;;;;;;;;;7.40;99.90;;;;;;5041538;28;20579;-63
2023/02/11 00:33:47;;;;;;;;;;;7.40;99.90;;;;;;5046735;28;19913;-66
2023/02/11 00:36:14;;;;;;;;;;;7.40;99.90;;;;;;5036358;28;19920;-66
2023/02/11 00:38:41;;;;;;;;;;;7.50;99.90;;;;;;5043692;28;19921;-65
2023/02/11 00:41:07;;;;;;;;;;;7.50;99.90;;;;;;5037316;28;20490;-66
2023/02/11 00:43:32;;;;;;;;;;;7.30;99.90;;;;;;5044008;28;19989;-65
2023/02/11 00:45:58;;;;;;;;;;;7.40;99.90;;;;;;5041945;28;20335;-66
2023/02/11 00:48:23;;;;;;;;;;;7.30;99.90;;;;;;5042824;28;20806;-66
2023/02/11 00:50:49;;;;;;;;;;;7.20;99.90;;;;;;5042955;28;20379;-65
2023/02/11 00:53:14;;;;;;;;;;;7.20;99.90;;;;;;5044274;28;19944;-65
2023/02/11 00:55:40;;;;;;;;;;;7.20;99.90;;;;;;5046681;28;19994;-64
2023/02/11 00:58:05;;;;;;;;;;;7.20;99.90;;;;;;5047744;28;19916;-65
2023/02/11 01:00:31;;;;;;;;;;;7.20;99.90;;;;;;5039864;28;20366;-65
2023/02/11 01:02:56;;;;;;;;;;;7.10;99.90;;;;;;5050124;28;19921;-66
2023/02/11 01:05:21;;;;;;;;;;;7.00;99.90;;;;;;5038606;28;19913;-63
2023/02/11 01:07:47;;;;;;;;;;;7.10;99.90;;;;;;5044366;28;19996;-66
2023/02/11 01:10:12;;;;;;;;;;;7.10;99.90;;;;;;5040494;28;19920;-65
2023/02/11 01:12:39;;;;;;;;;;;7.10;99.90;;;;;;5045101;28;19912;-66
2023/02/11 01:15:06;;;;;;;;;;;6.90;99.90;;;;;;5048008;28;20284;-64
2023/02/11 01:17:32;;;;;;;;;;;7.00;99.90;;;;;;5047237;28;19913;-66
2023/02/11 01:19:57;;;;;;;;;;;6.90;99.90;;;;;;5043102;28;19947;-65
2023/02/11 01:22:23;;;;;;;;;;;6.70;99.90;;;;;;5042981;28;19929;-65
2023/02/11 01:24:48;;;;;;;;;;;6.60;99.90;;;;;;5045536;28;19955;-65
2023/02/11 01:27:13;;;;;;;;;;;6.60;99.90;;;;;;5046823;28;19916;-66
2023/02/11 01:29:39;;;;;;;;;;;6.40;99.90;;;;;;5048675;28;19913;-65
2023/02/11 01:32:04;;;;;;;;;;;6.40;99.90;;;;;;5048901;28;19970;-65
2023/02/11 01:34:30;;;;;;;;;;;6.40;99.90;;;;;;5046704;28;19917;-66
2023/02/11 01:36:58;;;;;;;;;;;6.30;99.90;;;;;;5030240;28;19917;-66
2023/02/11 01:39:24;;;;;;;;;;;6.30;99.90;;;;;;5042147;28;19943;-66
2023/02/11 01:41:50;;;;;;;;;;;6.20;99.90;;;;;;5044467;28;19925;-66
2023/02/11 01:44:23;;;;;;;;;;;6.10;99.90;;;;;;5045921;28;19923;-65
2023/02/11 01:46:49;;;;;;;;;;;6.10;99.90;;;;;;5048418;28;19927;-65
2023/02/11 01:49:17;;;;;;;;;;;6.00;99.90;;;;;;5044138;28;19913;-65
2023/02/11 01:51:45;;;;;;;;;;;5.90;99.90;;;;;;5043352;28;19913;-65
2023/02/11 01:59:48;;;;;;;;;;;5.80;99.90;;;;;;5046452;28;19966;-64
2023/02/11 02:02:15;;;;;;;;;;;6.00;99.90;;;;;;5041637;28;19935;-64
2023/02/11 02:04:45;;;;;;;;;;;5.90;99.90;;;;;;5044018;28;20334;-64
2023/02/11 02:07:13;;;;;;;;;;;6.00;99.90;;;;;;5045014;28;19920;-64
2023/02/11 02:09:40;;;;;;;;;;;6.00;99.90;;;;;;5050121;28;19913;-64
2023/02/11 02:12:06;;;;;;;;;;;5.60;99.90;;;;;;5047607;28;19917;-64
2023/02/11 02:14:31;;;;;;;;;;;5.70;99.90;;;;;;5043337;28;19920;-64
2023/02/11 02:16:57;;;;;;;;;;;5.50;99.90;;;;;;5046292;28;20400;-64
2023/02/11 02:19:41;;;;;;;;;;;5.80;99.90;;;;;;5049676;28;19913;-65
2023/02/11 02:22:21;;;;;;;;;;;6.00;99.90;;;;;;5042035;28;20002;-65
2023/02/11 02:24:48;;;;;;;;;;;6.20;99.90;;;;;;5045042;28;20132;-65
2023/02/11 02:27:14;;;;;;;;;;;6.30;99.90;;;;;;5047583;28;19995;-63
2023/02/11 02:29:45;;;;;;;;;;;6.30;99.90;;;;;;5044176;28;19951;-63
2023/02/11 02:32:17;;;;;;;;;;;6.40;99.90;;;;;;5046727;28;19920;-65
2023/02/11 02:34:51;;;;;;;;;;;6.50;99.90;;;;;;5045137;28;19956;-64
2023/02/11 02:37:31;;;;;;;;;;;6.60;99.90;;;;;;5044084;28;20313;-65
2023/02/11 02:40:00;;;;;;;;;;;6.60;99.90;;;;;;5047671;28;20329;-65
2023/02/11 02:42:25;;;;;;;;;;;6.60;99.90;;;;;;5045060;28;19931;-65
2023/02/11 02:44:51;;;;;;;;;;;6.60;99.90;;;;;;5040644;28;19917;-64
2023/02/11 02:47:17;;;;;;;;;;;6.60;99.90;;;;;;5045034;28;19913;-64
2023/02/11 02:49:43;;;;;;;;;;;6.60;99.90;;;;;;5043084;28;19920;-65
2023/02/11 02:52:24;;;;;;;;;;;6.60;99.90;;;;;;5042121;28;19924;-64
2023/02/11 02:54:56;;;;;;;;;;;6.50;99.90;;;;;;5039861;28;20429;-65
2023/02/11 02:57:24;;;;;;;;;;;6.50;99.90;;;;;;5041705;28;19920;-65
2023/02/11 02:59:52;;;;;;;;;;;6.50;99.90;;;;;;5039471;28;19920;-65
2023/02/11 03:02:23;;;;;;;;;;;6.40;99.90;;;;;;5044096;28;20330;-65
2023/02/11 03:04:49;;;;;;;;;;;6.30;99.90;;;;;;5039930;28;19921;-64
2023/02/11 03:07:34;;;;;;;;;;;6.20;99.90;;;;;;5042786;28;19920;-64
2023/02/11 03:10:04;;;;;;;;;;;6.20;99.90;;;;;;5045555;28;19912;-65
2023/02/11 03:12:31;;;;;;;;;;;6.10;99.90;;;;;;5044074;28;20016;-64
2023/02/11 03:14:58;;;;;;;;;;;6.20;99.90;;;;;;5042702;28;19968;-64
2023/02/11 03:17:24;;;;;;;;;;;6.30;99.90;;;;;;5042937;28;20426;-65
2023/02/11 03:19:50;;;;;;;;;;;6.30;99.90;;;;;;5048254;28;20370;-65
2023/02/11 03:22:18;;;;;;;;;;;6.30;99.90;;;;;;5042093;28;19917;-65
2023/02/11 03:24:43;;;;;;;;;;;6.30;99.90;;;;;;5029723;28;20008;-65
2023/02/11 03:27:30;;;;;;;;;;;6.30;99.90;;;;;;5051513;28;20003;-65
2023/02/11 03:30:11;;;;;;;;;;;6.30;99.90;;;;;;5039893;28;19917;-65
2023/02/11 03:32:48;;;;;;;;;;;6.30;99.90;;;;;;5046777;28;19929;-65
2023/02/11 03:35:42;;;;;;;;;;;6.30;99.90;;;;;;5036521;28;20302;-65
2023/02/11 03:38:11;;;;;;;;;;;6.30;99.90;;;;;;5032011;28;19913;-65
2023/02/11 03:40:38;;;;;;;;;;;6.30;99.90;;;;;;5039282;28;19917;-66
2023/02/11 03:43:15;;;;;;;;;;;6.30;99.90;;;;;;5037585;28;19924;-65
2023/02/11 03:45:41;;;;;;;;;;;6.30;99.90;;;;;;5040817;28;19952;-65
2023/02/11 03:48:13;;;;;;;;;;;6.30;99.90;;;;;;5046675;28;20018;-65
2023/02/11 03:50:39;;;;;;;;;;;6.20;99.90;;;;;;5038227;28;19927;-65
2023/02/11 03:53:06;;;;;;;;;;;6.20;99.90;;;;;;5046072;28;19912;-65
2023/02/11 03:55:33;;;;;;;;;;;6.00;99.90;;;;;;5041282;28;19919;-63
2023/02/11 03:57:59;;;;;;;;;;;5.90;99.90;;;;;;5045148;28;19917;-64
2023/02/11 04:00:31;;;;;;;;;;;6.00;99.90;;;;;;5043693;28;19927;-65
2023/02/11 04:02:56;;;;;;;;;;;6.00;99.90;;;;;;5022298;28;19924;-65
2023/02/11 04:05:22;;;;;;;;;;;6.00;99.90;;;;;;5036682;28;19929;-66
2023/02/11 04:07:47;;;;;;;;;;;6.10;99.90;;;;;;5047420;28;19948;-65
2023/02/11 04:10:13;;;;;;;;;;;6.10;99.90;;;;;;5039995;28;19917;-65
2023/02/11 04:12:38;;;;;;;;;;;6.10;99.90;;;;;;5045446;28;19913;-66
2023/02/11 04:15:04;;;;;;;;;;;6.10;99.90;;;;;;5044482;28;20432;-63
2023/02/11 04:17:29;;;;;;;;;;;6.10;99.90;;;;;;5041025;28;19920;-65
2023/02/11 04:19:55;;;;;;;;;;;6.10;99.90;;;;;;5042814;28;19920;-65
2023/02/11 04:22:20;;;;;;;;;;;6.10;99.90;;;;;;5042378;28;19921;-65
2023/02/11 04:24:46;;;;;;;;;;;6.10;99.90;;;;;;5045516;28;19956;-65
2023/02/11 04:27:11;;;;;;;;;;;6.10;99.90;;;;;;5045394;28;19947;-65
2023/02/11 04:29:37;;;;;;;;;;;6.20;99.90;;;;;;5040554;28;19920;-65
2023/02/11 04:32:02;;;;;;;;;;;6.20;99.90;;;;;;5046486;28;19913;-65
2023/02/11 04:34:27;;;;;;;;;;;6.20;99.90;;;;;;5043645;28;19916;-64
2023/02/11 04:36:53;;;;;;;;;;;6.20;99.90;;;;;;5055875;28;20004;-65
2023/02/11 04:39:18;;;;;;;;;;;6.20;99.90;;;;;;5043600;28;19927;-64
2023/02/11 04:41:44;;;;;;;;;;;6.20;99.90;;;;;;5043127;28;19920;-65
2023/02/11 04:44:09;;;;;;;;;;;6.20;99.90;;;;;;5040303;28;20032;-65
2023/02/11 04:46:35;;;;;;;;;;;6.20;99.90;;;;;;5048885;28;20298;-63
2023/02/11 04:49:01;;;;;;;;;;;6.20;99.90;;;;;;5042641;28;19935;-64
2023/02/11 04:51:26;;;;;;;;;;;6.20;99.90;;;;;;5045813;28;19992;-65
2023/02/11 04:53:52;;;;;;;;;;;6.30;99.90;;;;;;5043276;28;19913;-65
2023/02/11 04:56:17;;;;;;;;;;;6.30;99.90;;;;;;5045052;28;20076;-65
2023/02/11 04:58:43;;;;;;;;;;;6.30;99.90;;;;;;5047533;28;19920;-65
2023/02/11 05:01:09;;;;;;;;;;;6.30;99.90;;;;;;5046638;28;19924;-65
2023/02/11 05:03:35;;;;;;;;;;;6.30;99.90;;;;;;5044243;28;20351;-63
2023/02/11 05:06:00;;;;;;;;;;;6.30;99.90;;;;;;5055033;28;19948;-64
2023/02/11 05:08:26;;;;;;;;;;;6.30;99.90;;;;;;5039253;28;19999;-64
2023/02/11 05:10:51;;;;;;;;;;;6.30;99.90;;;;;;5051425;28;19987;-65
2023/02/11 05:13:17;;;;;;;;;;;6.30;99.90;;;;;;5040693;28;19913;-64
2023/02/11 05:15:42;;;;;;;;;;;6.30;99.90;;;;;;5048480;28;19935;-64
2023/02/11 05:18:08;;;;;;;;;;;6.30;99.90;;;;;;5049766;28;20431;-65
2023/02/11 05:20:33;;;;;;;;;;;6.30;99.90;;;;;;5047094;28;20635;-65
2023/02/11 05:22:59;;;;;;;;;;;6.30;99.90;;;;;;5054031;28;19924;-65
2023/02/11 05:25:24;;;;;;;;;;;6.30;99.90;;;;;;5044301;28;19920;-64
2023/02/11 05:27:49;;;;;;;;;;;6.30;99.90;;;;;;5048665;28;19975;-65
2023/02/11 05:30:15;;;;;;;;;;;6.30;99.90;;;;;;5044913;28;20018;-64
2023/02/11 05:32:40;;;;;;;;;;;6.30;99.90;;;;;;5042023;28;19928;-65
2023/02/11 05:35:07;;;;;;;;;;;6.30;99.90;;;;;;5043068;28;19970;-64
2023/02/11 05:37:32;;;;;;;;;;;6.30;99.90;;;;;;5047914;28;19920;-65
2023/02/11 05:39:58;;;;;;;;;;;6.30;99.90;;;;;;5042027;28;19913;-64
2023/02/11 05:42:23;;;;;;;;;;;6.30;99.90;;;;;;5043217;28;20007;-65
2023/02/11 05:44:48;;;;;;;;;;;6.30;99.90;;;;;;5039426;28;19913;-64
2023/02/11 05:47:14;;;;;;;;;;;6.30;99.90;;;;;;5049285;28;19958;-64
2023/02/11 05:49:39;;;;;;;;;;;6.30;99.90;;;;;;5041626;28;19920;-66
2023/02/11 05:52:05;;;;;;;;;;;6.40;99.90;;;;;;5046207;28;19916;-65
2023/02/11 05:54:30;;;;;;;;;;;6.30;99.90;;;;;;5043336;28;19931;-64
2023/02/11 05:56:56;;;;;;;;;;;6.40;99.90;;;;;;5052328;28;19912;-65
2023/02/11 05:59:21;;;;;;;;;;;6.40;99.90;;;;;;5046520;28;19913;-64
2023/02/11 06:01:47;;;;;;;;;;;6.40;99.90;;;;;;5047560;28;19921;-64
2023/02/11 06:04:12;;;;;;;;;;;6.40;99.90;;;;;;5045104;28;20394;-65
2023/02/11 06:06:38;;;;;;;;;;;6.40;99.90;;;;;;5045744;28;19917;-65
2023/02/11 06:09:03;;;;;;;;;;;6.40;99.90;;;;;;5048435;28;19913;-63
2023/02/11 06:11:28;;;;;;;;;;;6.30;99.90;;;;;;5044840;28;19917;-65
2023/02/11 06:13:54;;;;;;;;;;;6.40;99.90;;;;;;5029541;28;20003;-65
2023/02/11 06:16:19;;;;;;;;;;;6.40;99.90;;;;;;5044455;28;20314;-65
2023/02/11 06:18:45;;;;;;;;;;;6.40;99.90;;;;;;5046627;28;20019;-65
2023/02/11 06:21:10;;;;;;;;;;;6.40;99.90;;;;;;5046581;28;19924;-65
2023/02/11 06:23:36;;;;;;;;;;;6.40;99.90;;;;;;5042051;28;19927;-63
2023/02/11 06:26:03;;;;;;;;;;;6.40;99.90;;;;;;5050617;28;20010;-64
2023/02/11 06:28:30;;;;;;;;;;;6.40;99.90;;;;;;5043142;28;20007;-64
2023/02/11 06:30:56;;;;;;;;;;;6.40;99.90;;;;;;5041072;28;19920;-64
2023/02/11 06:33:22;;;;;;;;;;;6.40;99.90;;;;;;5044642;28;19913;-64
2023/02/11 06:35:47;;;;;;;;;;;6.40;99.90;;;;;;5045926;28;19913;-64
2023/02/11 06:38:13;;;;;;;;;;;6.50;99.90;;;;;;5037391;28;20374;-64
2023/02/11 06:40:38;;;;;;;;;;;6.50;99.90;;;;;;5046845;28;20351;-64
2023/02/11 06:43:03;;;;;;;;;;;6.50;99.90;;;;;;5045813;28;19967;-64
2023/02/11 06:45:29;;;;;;;;;;;6.50;99.90;;;;;;5049769;28;19913;-64
2023/02/11 06:47:54;;;;;;;;;;;6.50;99.90;;;;;;5043679;28;19920;-66
2023/02/11 06:50:20;;;;;;;;;;;6.50;99.90;;;;;;5042236;28;20386;-65
2023/02/11 06:52:45;;;;;;;;;;;6.50;99.90;;;;;;5049166;28;19948;-65
2023/02/11 06:55:11;;;;;;;;;;;6.50;99.90;;;;;;5048025;28;20534;-65
2023/02/11 06:57:36;;;;;;;;;;;6.50;99.90;;;;;;5045672;28;19913;-65
2023/02/11 07:00:02;;;;;;;;;;;6.50;99.90;;;;;;5045544;28;19927;-64
2023/02/11 07:02:27;;;;;;;;;;;6.40;99.90;;;;;;5042834;28;20694;-65
2023/02/11 07:04:53;;;;;;;;;;;6.50;99.90;;;;;;5043636;28;19987;-65
2023/02/11 07:07:18;;;;;;;;;;;6.50;99.90;;;;;;5024342;28;19964;-64
2023/02/11 07:09:43;;;;;;;;;;;6.50;99.90;;;;;;5043041;28;19923;-64
2023/02/11 07:12:09;;;;;;;;;;;6.50;99.90;;;;;;5046935;28;19966;-64
2023/02/11 07:14:35;;;;;;;;;;;6.50;99.90;;;;;;5043898;28;19912;-63
2023/02/11 07:17:00;;;;;;;;;;;6.50;99.90;;;;;;5045453;28;20357;-65
2023/02/11 07:19:25;;;;;;;;;;;6.50;99.90;;;;;;5042754;28;19917;-65
2023/02/11 07:21:51;;;;;;;;;;;6.60;99.90;;;;;;5046008;28;19985;-65
2023/02/11 07:24:16;;;;;;;;;;;6.50;99.90;;;;;;5039983;28;20386;-65
2023/02/11 07:26:43;;;;;;;;;;;6.50;99.90;;;;;;5036882;28;19924;-64
2023/02/11 07:29:08;;;;;;;;;;;6.50;99.90;;;;;;5042851;28;19913;-65
2023/02/11 07:31:34;;;;;;;;;;;6.50;99.90;;;;;;5043482;28;19920;-65
2023/02/11 07:34:00;;;;;;;;;;;6.50;99.90;;;;;;5041905;28;19913;-65
2023/02/11 07:36:26;;;;;;;;;;;6.50;99.90;;;;;;5042420;28;20003;-65
2023/02/11 07:38:52;;;;;;;;;;;6.50;99.90;;;;;;5040082;28;20007;-65
2023/02/11 07:41:18;;;;;;;;;;;6.60;99.90;;;;;;5039006;28;20071;-65
2023/02/11 07:43:44;;;;;;;;;;;6.60;99.90;;;;;;5039323;28;19920;-63
2023/02/11 07:46:11;;;;;;;;;;;6.60;99.90;;;;;;5041761;28;20263;-65
2023/02/11 07:48:37;;;;;;;;;;;6.60;99.90;;;;;;5041653;28;19999;-66
2023/02/11 07:51:06;;;;;;;;;;;6.60;99.90;;;;;;5040743;28;20481;-66
2023/02/11 07:53:32;;;;;;;;;;;6.50;99.90;;;;;;5036052;28;19924;-66
2023/02/11 07:55:57;;;;;;;;;;;6.50;99.90;;;;;;5038764;28;19913;-65
2023/02/11 07:58:23;;;;;;;;;;;6.50;99.90;;;;;;5041126;28;20379;-65
2023/02/11 08:00:48;;;;;;;;;;;6.50;99.90;;;;;;5037671;28;19927;-63
2023/02/11 08:03:13;;;;;;;;;;;6.50;99.90;;;;;;5042981;28;19920;-67
2023/02/11 08:05:39;;;;;;;;;;;6.50;99.90;;;;;;5023139;28;20379;-65
2023/02/11 08:08:04;;;;;;;;;;;6.60;99.90;;;;;;5041424;28;20547;-65
2023/02/11 08:10:30;;;;;;;;;;;6.60;99.90;;;;;;5040354;28;20319;-64
2023/02/11 08:12:55;;;;;;;;;;;6.60;99.90;;;;;;5045758;28;19921;-64
2023/02/11 08:15:21;;;;;;;;;;;6.60;99.90;;;;;;5045591;28;19935;-63
2023/02/11 08:17:46;;;;;;;;;;;6.60;99.90;;;;;;5049003;28;20004;-63
2023/02/11 08:20:12;;;;;;;;;;;6.70;99.90;;;;;;5030691;28;19929;-64
2023/02/11 08:22:37;;;;;;;;;;;6.60;99.90;;;;;;5047166;28;19924;-64
2023/02/11 08:25:03;;;;;;;;;;;6.70;99.90;;;;;;5046979;28;19916;-65
2023/02/11 08:27:28;;;;;;;;;;;6.70;99.90;;;;;;5050467;28;19955;-65
2023/02/11 08:29:54;;;;;;;;;;;6.80;99.90;;;;;;5047781;28;20429;-64
2023/02/11 08:32:20;;;;;;;;;;;6.70;99.90;;;;;;5044579;28;19913;-65
2023/02/11 08:34:49;;;;;;;;;;;6.70;99.90;;;;;;5045366;28;19925;-64
2023/02/11 08:37:15;;;;;;;;;;;6.70;99.90;;;;;;5038461;28;19952;-64
2023/02/11 08:39:40;;;;;;;;;;;6.70;99.90;;;;;;5039817;28;20002;-65
2023/02/11 08:42:06;;;;;;;;;;;6.80;99.90;;;;;;5041556;28;19925;-65
2023/02/11 08:44:31;;;;;;;;;;;6.80;99.90;;;;;;5042590;28;19967;-65
2023/02/11 08:46:56;;;;;;;;;;;6.80;99.90;;;;;;5041301;28;19919;-65
2023/02/11 08:49:22;;;;;;;;;;;6.90;99.90;;;;;;5048030;28;20654;-65
2023/02/11 08:51:48;;;;;;;;;;;6.90;99.90;;;;;;5043792;28;20015;-63
2023/02/11 08:54:14;;;;;;;;;;;6.80;99.90;;;;;;5048591;28;20294;-66
2023/02/11 08:56:39;;;;;;;;;;;6.90;99.90;;;;;;5051362;28;19951;-65
2023/02/11 08:59:05;;;;;;;;;;;6.90;99.90;;;;;;5044946;28;19917;-65
2023/02/11 09:01:31;;;;;;;;;;;6.90;99.90;;;;;;5044187;28;19959;-65
2023/02/11 09:03:57;;;;;;;;;;;6.90;99.90;;;;;;5044788;28;19916;-65
2023/02/11 09:06:23;;;;;;;;;;;6.90;99.90;;;;;;5042833;28;20302;-65
2023/02/11 09:08:51;;;;;;;;;;;6.90;99.90;;;;;;5042727;28;19920;-63
2023/02/11 09:11:17;;;;;;;;;;;6.90;99.90;;;;;;5040988;28;19964;-62
2023/02/11 09:13:43;;;;;;;;;;;6.80;99.90;;;;;;5035463;28;20037;-66
2023/02/11 09:16:15;;;;;;;;;;;6.90;99.90;;;;;;5046496;28;19928;-65
2023/02/11 09:18:40;;;;;;;;;;;6.90;99.90;;;;;;5044625;28;20062;-65
2023/02/11 09:21:07;;;;;;;;;;;6.90;99.90;;;;;;5042589;28;20011;-66
2023/02/11 09:23:33;;;;;;;;;;;6.90;99.90;;;;;;5044822;28;19939;-65
2023/02/11 09:25:59;;;;;;;;;;;6.90;99.90;;;;;;5041847;28;19920;-66
2023/02/11 09:28:25;;;;;;;;;;;6.90;99.90;;;;;;5047396;28;19913;-66
2023/02/11 09:30:50;;;;;;;;;;;7.00;99.90;;;;;;5039729;28;19924;-65
2023/02/11 09:33:16;;;;;;;;;;;7.00;99.90;;;;;;5045271;28;19916;-64
2023/02/11 09:35:41;;;;;;;;;;;6.90;99.90;;;;;;5045820;28;20004;-64
2023/02/11 09:38:07;;;;;;;;;;;7.00;99.90;;;;;;5047943;28;19928;-66
2023/02/11 09:40:32;;;;;;;;;;;7.00;99.90;;;;;;5047338;28;20397;-65
2023/02/11 09:42:57;;;;;;;;;;;7.10;99.90;;;;;;5039096;28;20287;-66
2023/02/11 09:45:25;;;;;;;;;;;7.10;99.90;;;;;;5042375;28;20347;-63
2023/02/11 09:47:53;;;;;;;;;;;7.10;99.90;;;;;;5048138;28;19924;-65
2023/02/11 09:50:25;;;;;;;;;;;7.00;99.90;;;;;;5044404;28;20364;-65
2023/02/11 09:52:54;;;;;;;;;;;7.10;99.90;;;;;;5043672;28;19917;-63
2023/02/11 09:55:21;;;;;;;;;;;7.10;99.90;;;;;;5045879;28;19927;-65
2023/02/11 09:57:47;;;;;;;;;;;7.20;99.90;;;;;;5039704;28;19930;-65
2023/02/11 10:00:25;;;;;;;;;;;7.20;99.90;;;;;;5044238;28;19920;-65
2023/02/11 10:02:53;;;;;;;;;;;7.20;99.90;;;;;;5038336;28;19967;-65
2023/02/11 10:05:34;;;;;;;;;;;7.30;99.90;;;;;;5043461;28;20879;-64
2023/02/11 10:08:08;;;;;;;;;;;7.30;99.90;;;;;;5033380;28;19917;-64
2023/02/11 10:10:39;;;;;;;;;;;7.30;99.90;;;;;;5040969;28;19919;-65
2023/02/11 10:13:16;;;;;;;;;;;7.40;99.90;;;;;;5023578;28;19932;-66
2023/02/11 10:15:46;;;;;;;;;;;7.40;99.90;;;;;;5046659;28;19917;-65
2023/02/11 10:18:31;;;;;;;;;;;7.40;99.90;;;;;;5045270;28;19913;-66
2023/02/11 10:21:08;;;;;;;;;;;7.40;99.90;;;;;;5040550;28;20306;-65
2023/02/11 10:23:35;;;;;;;;;;;7.40;99.90;;;;;;5043047;28;19917;-65
2023/02/11 10:26:01;;;;;;;;;;;7.40;99.90;;;;;;5038184;28;19921;-65
2023/02/11 10:28:32;;;;;;;;;;;7.50;99.90;;;;;;5041421;28;20345;-65
2023/02/11 10:31:06;;;;;;;;;;;7.50;99.90;;;;;;5040471;28;20556;-66
2023/02/11 10:33:35;;;;;;;;;;;7.50;99.90;;;;;;5039983;28;19913;-65
2023/02/11 10:36:02;;;;;;;;;;;7.50;99.90;;;;;;5043699;28;19966;-65
2023/02/11 10:38:27;;;;;;;;;;;7.50;99.90;;;;;;5044751;28;20655;-65
2023/02/11 10:40:53;;;;;;;;;;;7.60;99.90;;;;;;5032331;28;19940;-64
2023/02/11 10:43:21;;;;;;;;;;;7.70;99.90;;;;;;5031674;28;20051;-65
2023/02/11 10:45:48;;;;;;;;;;;7.60;99.90;;;;;;5034728;28;19974;-64
2023/02/11 10:48:32;;;;;;;;;;;7.60;99.90;;;;;;5038382;28;19999;-65
2023/02/11 10:51:06;;;;;;;;;;;7.60;99.90;;;;;;5038096;28;19913;-64
2023/02/11 10:53:32;;;;;;;;;;;7.60;99.90;;;;;;5042994;28;19921;-65
2023/02/11 10:55:58;;;;;;;;;;;7.60;99.90;;;;;;5042770;28;19913;-64
2023/02/11 10:58:25;;;;;;;;;;;7.60;99.90;;;;;;5043261;28;19931;-63
2023/02/11 11:00:52;;;;;;;;;;;7.60;99.90;;;;;;5040458;28;20358;-64
2023/02/11 11:03:18;;;;;;;;;;;7.70;99.90;;;;;;5041348;28;19913;-65
2023/02/11 11:06:00;;;;;;;;;;;7.70;99.90;;;;;;5040700;28;19923;-65
2023/02/11 11:08:44;;;;;;;;;;;7.70;99.90;;;;;;5037258;28;19912;-64
2023/02/11 11:11:14;;;;;;;;;;;7.70;99.90;;;;;;5043666;28;19920;-64
2023/02/11 11:13:42;;;;;;;;;;;7.70;99.90;;;;;;5038290;28;19920;-65
2023/02/11 11:16:10;;;;;;;;;;;7.70;99.90;;;;;;5041263;28;20302;-65
2023/02/11 11:18:36;;;;;;;;;;;7.70;99.90;;;;;;5038518;28;20208;-64
2023/02/11 11:21:04;;;;;;;;;;;7.70;99.90;;;;;;5026561;28;19916;-65
2023/02/11 11:23:30;;;;;;;;;;;7.70;99.90;;;;;;5044539;28;20055;-65
2023/02/11 11:26:04;;;;;;;;;;;7.70;99.90;;;;;;5042177;28;20253;-64
2023/02/11 11:28:38;;;;;;;;;;;7.80;99.90;;;;;;5039965;28;19965;-65
2023/02/11 11:31:04;;;;;;;;;;;7.80;99.90;;;;;;5028279;28;20568;-64
2023/02/11 11:33:32;;;;;;;;;;;7.70;99.90;;;;;;5036367;28;19927;-63
2023/02/11 11:35:59;;;;;;;;;;;7.80;99.90;;;;;;5021993;28;19916;-63
2023/02/11 11:38:26;;;;;;;;;;;7.80;99.90;;;;;;5024631;28;19921;-66
2023/02/11 11:41:10;;;;;;;;;;;7.80;99.90;;;;;;5038221;28;19924;-64
2023/02/11 11:43:36;;;;;;;;;;;7.70;99.90;;;;;;5035187;28;20317;-64
2023/02/11 11:46:05;;;;;;;;;;;7.70;99.90;;;;;;5037375;28;19913;-65
2023/02/11 11:48:33;;;;;;;;;;;7.80;99.90;;;;;;5035285;28;19913;-65
2023/02/11 11:51:00;;;;;;;;;;;7.80;99.90;;;;;;5029860;28;19913;-65
2023/02/11 11:53:38;;;;;;;;;;;7.80;99.90;;;;;;5037661;28;19921;-65
2023/02/11 11:56:14;;;;;;;;;;;7.90;99.90;;;;;;5038664;28;19913;-64
2023/02/11 11:58:39;;;;;;;;;;;7.90;99.90;;;;;;5039181;28;19915;-64
2023/02/11 12:01:21;;;;;;;;;;;7.90;99.90;;;;;;5041455;28;19995;-64
2023/02/11 12:04:05;;;;;;;;;;;7.90;99.90;;;;;;5047154;28;19921;-64
2023/02/11 12:06:50;;;;;;;;;;;7.80;99.90;;;;;;5044330;28;19921;-64
2023/02/11 12:09:15;;;;;;;;;;;7.90;99.90;;;;;;5044300;28;19944;-64
2023/02/11 12:12:01;;;;;;;;;;;7.80;99.90;;;;;;5041380;28;19952;-64
2023/02/11 12:14:26;;;;;;;;;;;7.90;99.90;;;;;;5044258;28;19913;-64
2023/02/11 12:16:52;;;;;;;;;;;7.90;99.90;;;;;;5037255;28;19921;-64
2023/02/11 12:19:30;;;;;;;;;;;7.90;99.90;;;;;;5044679;28;19916;-64
2023/02/11 12:22:07;;;;;;;;;;;7.80;99.90;;;;;;5039888;28;19917;-64
2023/02/11 12:24:35;;;;;;;;;;;7.90;99.90;;;;;;5040525;28;20325;-64
2023/02/11 12:27:07;;;;;;;;;;;8.00;99.90;;;;;;5035374;28;19917;-65
2023/02/11 12:29:45;;;;;;;;;;;8.00;99.90;;;;;;5043452;28;19909;-64
2023/02/11 12:32:19;;;;;;;;;;;7.90;99.90;;;;;;5039377;28;19959;-64
2023/02/11 12:35:10;;;;;;;;;;;7.90;99.90;;;;;;5037955;28;20300;-65
2023/02/11 12:38:02;;;;;;;;;;;7.90;99.90;;;;;;5039458;28;19995;-64
2023/02/11 12:40:36;;;;;;;;;;;7.90;99.90;;;;;;5035895;28;20135;-65
2023/02/11 12:43:17;;;;;;;;;;;7.90;99.90;;;;;;5041345;28;20033;-64
2023/02/11 12:45:54;;;;;;;;;;;7.90;99.90;;;;;;5041942;28;19921;-65
2023/02/11 12:48:24;;;;;;;;;;;7.80;99.90;;;;;;5042795;28;20078;-64
2023/02/11 12:51:18;;;;;;;;;;;7.80;99.90;;;;;;5034136;28;19908;-65
2023/02/11 12:54:02;;;;;;;;;;;7.80;99.90;;;;;;5030032;28;19913;-64
2023/02/11 12:56:33;;;;;;;;;;;7.80;99.90;;;;;;5045786;28;19909;-64
2023/02/11 12:58:59;;;;;;;;;;;7.80;99.90;;;;;;5046971;28;20397;-65
2023/02/11 13:01:26;;;;;;;;;;;7.80;99.90;;;;;;5044362;28;20293;-64
2023/02/11 13:03:58;;;;;;;;;;;7.80;99.90;;;;;;5050466;28;20428;-65
2023/02/11 13:06:28;;;;;;;;;;;7.80;99.90;;;;;;5048184;28;19917;-66
2023/02/11 13:08:57;;;;;;;;;;;7.80;99.90;;;;;;5046814;28;19917;-64
2023/02/11 13:11:35;;;;;;;;;;;7.80;99.90;;;;;;5052609;28;19920;-65
2023/02/11 13:14:04;;;;;;;;;;;7.80;99.90;;;;;;5035020;28;20501;-65
2023/02/11 13:16:30;;;;;;;;;;;7.80;99.90;;;;;;5045009;28;20366;-64
2023/02/11 13:19:14;;;;;;;;;;;7.80;99.90;;;;;;5044583;28;19920;-64
2023/02/11 13:21:54;;;;;;;;;;;7.90;99.90;;;;;;5046925;28;20294;-64
2023/02/11 13:24:40;;;;;;;;;;;7.90;99.90;;;;;;5030236;28;19992;-64
2023/02/11 13:27:08;;;;;;;;;;;7.90;99.90;;;;;;5033029;28;19923;-65
2023/02/11 13:29:54;;;;;;;;;;;7.80;99.90;;;;;;5044981;28;19913;-64
2023/02/11 13:32:20;;;;;;;;;;;7.80;99.90;;;;;;5046832;28;19995;-65
2023/02/11 13:34:45;;;;;;;;;;;7.90;99.90;;;;;;5037495;28;19916;-65
2023/02/11 13:37:25;;;;;;;;;;;7.90;99.90;;;;;;5034277;28;20019;-65
2023/02/11 13:40:01;;;;;;;;;;;7.90;99.90;;;;;;5051280;28;20003;-65
2023/02/11 13:42:27;;;;;;;;;;;7.90;99.90;;;;;;5025027;28;20016;-64
2023/02/11 13:44:53;;;;;;;;;;;7.90;99.90;;;;;;5030475;28;19916;-65
2023/02/11 13:47:29;;;;;;;;;;;7.90;99.90;;;;;;5024792;28;20383;-65
2023/02/11 13:49:55;;;;;;;;;;;7.90;99.90;;;;;;5029164;28;20586;-65
2023/02/11 13:52:22;;;;;;;;;;;7.90;99.90;;;;;;5035527;28;19917;-65
2023/02/11 13:54:50;;;;;;;;;;;7.90;99.90;;;;;;5038231;28;19964;-65
2023/02/11 13:57:18;;;;;;;;;;;8.00;99.90;;;;;;5040956;28;19916;-65
2023/02/11 13:59:45;;;;;;;;;;;8.00;99.90;;;;;;5046553;28;19920;-65
2023/02/11 14:10:55;;;;;;;;;;;8.20;99.90;;;;;;5038312;28;19963;-65
2023/02/11 14:13:23;;;;;;;;;;;8.20;99.90;;;;;;5048023;28;19961;-65
2023/02/11 14:16:02;;;;;;;;;;;8.10;99.90;;;;;;5042047;28;19910;-65
2023/02/11 14:18:37;;;;;;;;;;;8.20;99.90;;;;;;5043427;28;19913;-65
2023/02/11 14:21:12;;;;;;;;;;;8.10;99.90;;;;;;5041234;28;19917;-64
2023/02/11 14:23:38;;;;;;;;;;;8.10;99.90;;;;;;5047706;28;19925;-65
2023/02/11 14:26:18;;;;;;;;;;;8.10;99.90;;;;;;5043550;28;20000;-63
2023/02/11 14:28:46;;;;;;;;;;;8.10;99.90;;;;;;5053918;28;20362;-65
2023/02/11 14:31:12;;;;;;;;;;;8.20;99.90;;;;;;5030689;28;19920;-65
2023/02/11 14:33:41;;;;;;;;;;;8.20;99.90;;;;;;5049966;28;19908;-66
2023/02/11 14:36:13;;;;;;;;;;;8.20;99.90;;;;;;5045109;28;19917;-65
2023/02/11 14:39:07;;;;;;;;;;;8.20;99.90;;;;;;5048758;28;20370;-65
2023/02/11 14:41:40;;;;;;;;;;;8.30;99.90;;;;;;5042828;28;20031;-66
2023/02/11 14:44:12;;;;;;;;;;;8.30;99.90;;;;;;5043417;28;20595;-66
2023/02/11 14:46:42;;;;;;;;;;;8.30;99.90;;;;;;5050481;28;19916;-66
2023/02/11 14:49:15;;;;;;;;;;;8.30;99.90;;;;;;5043965;28;19913;-65
2023/02/11 14:51:40;;;;;;;;;;;8.30;99.90;;;;;;5046308;28;20534;-65
2023/02/11 14:54:12;;;;;;;;;;;8.20;99.90;;;;;;5039210;28;19921;-64